OIAG  Aghajari  Airport

Aghajari,, Iran

Add Bookmark
ICAO OIAG
Type Airport
Status Operational
Latitude
30° 44' 39" N
30.744400
Longitude
49° 40' 37" E
49.677200
Local (GMT +4.5 ) UTC
Aug 25, 2016 03:38 am Aug 24, 2016 23:08
Sunrise-Sunset Local UTC
Begin Civil Twilight 06:17 am 01:47
Sunrise 06:42 am 02:12
Sunset 07:43 pm 15:13
End Civil Twilight 08:08 pm 15:38
VFR
VFR
MVFR
MVFR
IFR
IFR
LIFR
LIFR
Unknown
Unavailable

Current Weather

METAR Observed VFR
OIAG 242000Z 14004KT CAVOK 33/08 Q1001 Wed, Aug 24, 2016 @ 20:00 UTC
(3 Hours, 8 Minutes ago)
Visual Flight Rules
Wind Visibility Conditions
140° at 4 knots (7 kph) 10 km or more
  • No significant weather
Temperatures Readings Precipitation
Current Temp
33°C
91°F
Dewpoint
8°C
46°F
Humidity 21%
Altimeter 29.56" Hg
Sea Level Pressure 1,001 mb
Field Elevation
29 m
95 ft
None Recorded

Additional weather within a 92.6km radius of OIAG

Map ICAO Location
OIAM 54.4km W/SW (248°)
VFR
VFR
MVFR
MVFR
IFR
IFR
LIFR
LIFR
Unknown
Unavailable
-
-

CheckWX.com is intended as a tool to help pilots better visualize weather data. It is not intended as a substitute for an official weather briefing obtained from a Flight Service Station. CheckWX.com does not meet the FAA requirements for an official pre-flight weather briefing. Therefore, it's important that pilots still call and obtain an official FSS pre-flight weather briefing.

© 2007-2016 CheckWX.com
23:08:05 UTC